sensor_id;sensor_type;location;lat;lon;timestamp;temperature;humidity
35085;SHT85;21267;51.032;6.998;2024-02-28T00:01:02;3.43;94.32
35085;SHT85;21267;51.032;6.998;2024-02-28T00:03:29;3.40;94.56
35085;SHT85;21267;51.032;6.998;2024-02-28T00:05:58;3.50;94.69
35085;SHT85;21267;51.032;6.998;2024-02-28T00:08:25;3.44;94.71
35085;SHT85;21267;51.032;6.998;2024-02-28T00:10:52;3.37;94.95
35085;SHT85;21267;51.032;6.998;2024-02-28T00:13:21;3.30;94.97
35085;SHT85;21267;51.032;6.998;2024-02-28T00:15:49;3.31;95.04
35085;SHT85;21267;51.032;6.998;2024-02-28T00:18:17;3.46;95.03
35085;SHT85;21267;51.032;6.998;2024-02-28T00:20:44;3.53;94.65
35085;SHT85;21267;51.032;6.998;2024-02-28T00:23:11;3.60;94.59
35085;SHT85;21267;51.032;6.998;2024-02-28T00:25:39;3.68;94.26
35085;SHT85;21267;51.032;6.998;2024-02-28T00:28:06;3.64;94.18
35085;SHT85;21267;51.032;6.998;2024-02-28T00:30:34;3.60;93.96
35085;SHT85;21267;51.032;6.998;2024-02-28T00:33:03;3.68;94.12
35085;SHT85;21267;51.032;6.998;2024-02-28T00:35:31;3.63;93.78
35085;SHT85;21267;51.032;6.998;2024-02-28T00:38:00;3.67;94.11
35085;SHT85;21267;51.032;6.998;2024-02-28T00:40:27;3.66;94.09
35085;SHT85;21267;51.032;6.998;2024-02-28T00:42:55;3.68;94.00
35085;SHT85;21267;51.032;6.998;2024-02-28T00:45:22;3.63;93.94
35085;SHT85;21267;51.032;6.998;2024-02-28T00:47:49;3.70;93.75
35085;SHT85;21267;51.032;6.998;2024-02-28T00:50:16;3.57;94.21
35085;SHT85;21267;51.032;6.998;2024-02-28T00:52:43;3.84;94.09
35085;SHT85;21267;51.032;6.998;2024-02-28T00:55:09;3.78;93.58
35085;SHT85;21267;51.032;6.998;2024-02-28T01:01:38;3.77;92.85
35085;SHT85;21267;51.032;6.998;2024-02-28T01:04:05;3.74;93.10
35085;SHT85;21267;51.032;6.998;2024-02-28T01:06:32;3.77;93.13
35085;SHT85;21267;51.032;6.998;2024-02-28T01:08:59;3.81;92.79
35085;SHT85;21267;51.032;6.998;2024-02-28T01:11:26;3.75;92.96
35085;SHT85;21267;51.032;6.998;2024-02-28T01:13:53;3.77;92.94
35085;SHT85;21267;51.032;6.998;2024-02-28T01:16:19;3.77;92.82
35085;SHT85;21267;51.032;6.998;2024-02-28T01:18:46;3.77;92.58
35085;SHT85;21267;51.032;6.998;2024-02-28T01:21:13;3.58;93.52
35085;SHT85;21267;51.032;6.998;2024-02-28T01:23:40;3.60;93.70
35085;SHT85;21267;51.032;6.998;2024-02-28T01:26:07;3.91;92.74
35085;SHT85;21267;51.032;6.998;2024-02-28T01:28:34;3.84;92.89
35085;SHT85;21267;51.032;6.998;2024-02-28T01:31:01;3.53;93.40
35085;SHT85;21267;51.032;6.998;2024-02-28T01:33:28;3.24;94.47
35085;SHT85;21267;51.032;6.998;2024-02-28T01:35:55;3.27;94.67
35085;SHT85;21267;51.032;6.998;2024-02-28T01:38:25;3.22;94.89
35085;SHT85;21267;51.032;6.998;2024-02-28T01:40:53;3.16;94.94
35085;SHT85;21267;51.032;6.998;2024-02-28T01:43:20;3.37;94.63
35085;SHT85;21267;51.032;6.998;2024-02-28T01:45:47;3.50;94.26
35085;SHT85;21267;51.032;6.998;2024-02-28T01:48:14;3.46;93.73
35085;SHT85;21267;51.032;6.998;2024-02-28T01:50:41;3.30;94.31
35085;SHT85;21267;51.032;6.998;2024-02-28T01:53:09;3.22;94.83
35085;SHT85;21267;51.032;6.998;2024-02-28T01:55:38;3.44;94.13
35085;SHT85;21267;51.032;6.998;2024-02-28T01:58:05;3.51;94.08
35085;SHT85;21267;51.032;6.998;2024-02-28T02:00:35;3.38;94.19
35085;SHT85;21267;51.032;6.998;2024-02-28T02:03:04;3.58;93.89
35085;SHT85;21267;51.032;6.998;2024-02-28T02:05:31;3.58;93.64
35085;SHT85;21267;51.032;6.998;2024-02-28T02:07:58;3.71;93.60
35085;SHT85;21267;51.032;6.998;2024-02-28T02:10:25;3.67;93.43
35085;SHT85;21267;51.032;6.998;2024-02-28T02:12:52;3.79;93.44
35085;SHT85;21267;51.032;6.998;2024-02-28T02:15:19;3.78;93.17
35085;SHT85;21267;51.032;6.998;2024-02-28T02:17:46;3.61;93.03
35085;SHT85;21267;51.032;6.998;2024-02-28T02:20:14;3.58;93.81
35085;SHT85;21267;51.032;6.998;2024-02-28T02:22:42;3.47;93.98
35085;SHT85;21267;51.032;6.998;2024-02-28T02:25:09;3.75;93.96
35085;SHT85;21267;51.032;6.998;2024-02-28T02:27:36;3.67;93.47
35085;SHT85;21267;51.032;6.998;2024-02-28T02:30:03;3.74;93.61
35085;SHT85;21267;51.032;6.998;2024-02-28T02:32:30;3.68;93.27
35085;SHT85;21267;51.032;6.998;2024-02-28T02:34:57;3.77;93.20
35085;SHT85;21267;51.032;6.998;2024-02-28T02:40:43;3.79;93.29
35085;SHT85;21267;51.032;6.998;2024-02-28T02:43:10;3.74;93.55
35085;SHT85;21267;51.032;6.998;2024-02-28T02:45:37;3.78;93.42
35085;SHT85;21267;51.032;6.998;2024-02-28T02:48:04;3.71;93.68
35085;SHT85;21267;51.032;6.998;2024-02-28T02:50:31;3.63;94.03
35085;SHT85;21267;51.032;6.998;2024-02-28T02:52:58;3.56;94.25
35085;SHT85;21267;51.032;6.998;2024-02-28T02:55:25;3.64;94.03
35085;SHT85;21267;51.032;6.998;2024-02-28T02:57:52;3.54;94.28
35085;SHT85;21267;51.032;6.998;2024-02-28T03:00:19;3.57;94.49
35085;SHT85;21267;51.032;6.998;2024-02-28T03:02:46;3.66;94.38
35085;SHT85;21267;51.032;6.998;2024-02-28T03:05:12;4.02;93.70
35085;SHT85;21267;51.032;6.998;2024-02-28T03:07:39;3.92;93.71
35085;SHT85;21267;51.032;6.998;2024-02-28T03:10:06;3.82;93.64
35085;SHT85;21267;51.032;6.998;2024-02-28T03:12:33;3.94;93.35
35085;SHT85;21267;51.032;6.998;2024-02-28T03:15:00;3.89;93.37
35085;SHT85;21267;51.032;6.998;2024-02-28T03:17:27;3.94;93.29
35085;SHT85;21267;51.032;6.998;2024-02-28T03:19:54;3.88;93.67
35085;SHT85;21267;51.032;6.998;2024-02-28T03:22:21;4.02;93.45
35085;SHT85;21267;51.032;6.998;2024-02-28T03:24:48;4.02;93.13
35085;SHT85;21267;51.032;6.998;2024-02-28T03:27:15;4.23;92.54
35085;SHT85;21267;51.032;6.998;2024-02-28T03:29:42;4.20;92.39
35085;SHT85;21267;51.032;6.998;2024-02-28T03:32:08;4.40;92.36
35085;SHT85;21267;51.032;6.998;2024-02-28T03:34:35;4.12;92.80
35085;SHT85;21267;51.032;6.998;2024-02-28T03:37:02;4.25;92.59
35085;SHT85;21267;51.032;6.998;2024-02-28T03:39:29;4.06;92.69
35085;SHT85;21267;51.032;6.998;2024-02-28T03:41:56;4.17;92.99
35085;SHT85;21267;51.032;6.998;2024-02-28T03:44:23;4.30;92.41
35085;SHT85;21267;51.032;6.998;2024-02-28T03:46:52;4.36;92.74
35085;SHT85;21267;51.032;6.998;2024-02-28T03:49:19;4.20;92.43
35085;SHT85;21267;51.032;6.998;2024-02-28T03:51:45;4.40;92.54
35085;SHT85;21267;51.032;6.998;2024-02-28T03:54:12;4.02;93.15
35085;SHT85;21267;51.032;6.998;2024-02-28T03:56:39;4.28;92.88
35085;SHT85;21267;51.032;6.998;2024-02-28T03:59:06;4.36;92.52
35085;SHT85;21267;51.032;6.998;2024-02-28T04:01:33;4.30;93.04
35085;SHT85;21267;51.032;6.998;2024-02-28T04:04:00;4.52;91.58
35085;SHT85;21267;51.032;6.998;2024-02-28T04:06:26;4.57;90.96
35085;SHT85;21267;51.032;6.998;2024-02-28T04:08:53;4.60;90.54
35085;SHT85;21267;51.032;6.998;2024-02-28T04:11:20;4.52;90.72
35085;SHT85;21267;51.032;6.998;2024-02-28T04:13:47;4.28;92.17
35085;SHT85;21267;51.032;6.998;2024-02-28T04:16:14;4.32;92.13
35085;SHT85;21267;51.032;6.998;2024-02-28T04:18:40;4.40;91.98
35085;SHT85;21267;51.032;6.998;2024-02-28T04:21:07;4.45;91.85
35085;SHT85;21267;51.032;6.998;2024-02-28T04:23:34;4.40;91.99
35085;SHT85;21267;51.032;6.998;2024-02-28T04:26:01;4.32;91.85
35085;SHT85;21267;51.032;6.998;2024-02-28T04:28:28;4.54;91.37
35085;SHT85;21267;51.032;6.998;2024-02-28T04:30:55;4.53;91.42
35085;SHT85;21267;51.032;6.998;2024-02-28T04:33:22;4.57;90.98
35085;SHT85;21267;51.032;6.998;2024-02-28T04:35:49;4.50;90.49
35085;SHT85;21267;51.032;6.998;2024-02-28T04:38:16;4.37;90.46
35085;SHT85;21267;51.032;6.998;2024-02-28T04:40:43;4.47;90.69
35085;SHT85;21267;51.032;6.998;2024-02-28T04:43:10;4.35;90.86
35085;SHT85;21267;51.032;6.998;2024-02-28T04:45:36;4.42;90.93
35085;SHT85;21267;51.032;6.998;2024-02-28T04:48:04;4.37;91.03
35085;SHT85;21267;51.032;6.998;2024-02-28T04:50:31;4.26;91.13
35085;SHT85;21267;51.032;6.998;2024-02-28T04:52:58;4.29;91.59
35085;SHT85;21267;51.032;6.998;2024-02-28T04:55:25;4.29;91.37
35085;SHT85;21267;51.032;6.998;2024-02-28T04:57:52;4.32;91.14
35085;SHT85;21267;51.032;6.998;2024-02-28T05:00:19;4.28;91.35
35085;SHT85;21267;51.032;6.998;2024-02-28T05:02:46;4.22;91.18
35085;SHT85;21267;51.032;6.998;2024-02-28T05:05:13;4.28;91.18
35085;SHT85;21267;51.032;6.998;2024-02-28T05:07:39;4.30;91.44
35085;SHT85;21267;51.032;6.998;2024-02-28T05:10:07;4.19;91.18
35085;SHT85;21267;51.032;6.998;2024-02-28T05:12:34;4.28;91.18
35085;SHT85;21267;51.032;6.998;2024-02-28T05:15:00;4.20;91.14
35085;SHT85;21267;51.032;6.998;2024-02-28T05:17:27;4.19;91.15
35085;SHT85;21267;51.032;6.998;2024-02-28T05:19:54;4.36;90.87
35085;SHT85;21267;51.032;6.998;2024-02-28T05:22:21;4.35;91.06
35085;SHT85;21267;51.032;6.998;2024-02-28T05:24:48;4.47;90.47
35085;SHT85;21267;51.032;6.998;2024-02-28T05:27:14;4.30;90.80
35085;SHT85;21267;51.032;6.998;2024-02-28T05:29:41;4.45;90.54
35085;SHT85;21267;51.032;6.998;2024-02-28T05:32:09;4.37;90.85
35085;SHT85;21267;51.032;6.998;2024-02-28T05:34:36;4.32;91.11
35085;SHT85;21267;51.032;6.998;2024-02-28T05:37:03;4.37;91.34
35085;SHT85;21267;51.032;6.998;2024-02-28T05:39:30;4.36;91.14
35085;SHT85;21267;51.032;6.998;2024-02-28T05:41:57;4.35;91.22
35085;SHT85;21267;51.032;6.998;2024-02-28T05:44:24;4.35;91.29
35085;SHT85;21267;51.032;6.998;2024-02-28T05:46:51;4.35;91.32
35085;SHT85;21267;51.032;6.998;2024-02-28T05:49:18;4.40;91.38
35085;SHT85;21267;51.032;6.998;2024-02-28T05:51:45;4.39;91.24
35085;SHT85;21267;51.032;6.998;2024-02-28T05:54:14;4.42;91.23
35085;SHT85;21267;51.032;6.998;2024-02-28T05:56:41;4.54;90.96
35085;SHT85;21267;51.032;6.998;2024-02-28T05:59:08;4.47;90.60
35085;SHT85;21267;51.032;6.998;2024-02-28T06:01:35;4.47;91.05
35085;SHT85;21267;51.032;6.998;2024-02-28T06:04:03;4.33;91.13
35085;SHT85;21267;51.032;6.998;2024-02-28T06:06:30;4.35;91.03
35085;SHT85;21267;51.032;6.998;2024-02-28T06:08:57;4.37;91.34
35085;SHT85;21267;51.032;6.998;2024-02-28T06:11:24;4.28;90.96
35085;SHT85;21267;51.032;6.998;2024-02-28T06:13:51;4.43;90.91
35085;SHT85;21267;51.032;6.998;2024-02-28T06:16:18;4.39;91.07
35085;SHT85;21267;51.032;6.998;2024-02-28T06:18:45;4.33;91.07
35085;SHT85;21267;51.032;6.998;2024-02-28T06:21:13;4.37;91.13
35085;SHT85;21267;51.032;6.998;2024-02-28T06:23:41;4.32;91.30
35085;SHT85;21267;51.032;6.998;2024-02-28T06:26:08;4.33;91.34
35085;SHT85;21267;51.032;6.998;2024-02-28T06:28:41;4.35;91.67
35085;SHT85;21267;51.032;6.998;2024-02-28T06:31:15;4.28;91.59
35085;SHT85;21267;51.032;6.998;2024-02-28T06:33:43;4.32;91.52
35085;SHT85;21267;51.032;6.998;2024-02-28T06:36:11;4.30;91.37
35085;SHT85;21267;51.032;6.998;2024-02-28T06:38:38;4.28;91.57
35085;SHT85;21267;51.032;6.998;2024-02-28T06:41:05;4.40;91.69
35085;SHT85;21267;51.032;6.998;2024-02-28T06:43:35;4.45;91.38
35085;SHT85;21267;51.032;6.998;2024-02-28T06:46:04;4.46;91.37
35085;SHT85;21267;51.032;6.998;2024-02-28T06:48:31;4.49;91.55
35085;SHT85;21267;51.032;6.998;2024-02-28T06:50:59;4.39;91.57
35085;SHT85;21267;51.032;6.998;2024-02-28T06:53:26;4.54;91.34
35085;SHT85;21267;51.032;6.998;2024-02-28T06:55:56;4.37;91.42
35085;SHT85;21267;51.032;6.998;2024-02-28T06:58:23;4.43;91.34
35085;SHT85;21267;51.032;6.998;2024-02-28T07:00:51;4.49;91.30
35085;SHT85;21267;51.032;6.998;2024-02-28T07:03:21;4.50;91.23
35085;SHT85;21267;51.032;6.998;2024-02-28T07:05:48;4.46;91.17
35085;SHT85;21267;51.032;6.998;2024-02-28T07:08:16;4.61;91.15
35085;SHT85;21267;51.032;6.998;2024-02-28T07:10:43;4.67;90.99
35085;SHT85;21267;51.032;6.998;2024-02-28T07:13:10;4.57;90.89
35085;SHT85;21267;51.032;6.998;2024-02-28T07:15:37;4.57;90.91
35085;SHT85;21267;51.032;6.998;2024-02-28T07:18:05;4.66;90.80
35085;SHT85;21267;51.032;6.998;2024-02-28T07:20:33;4.61;90.87
35085;SHT85;21267;51.032;6.998;2024-02-28T07:23:00;4.58;90.89
35085;SHT85;21267;51.032;6.998;2024-02-28T07:25:27;4.67;91.00
35085;SHT85;21267;51.032;6.998;2024-02-28T07:27:56;4.70;91.05
35085;SHT85;21267;51.032;6.998;2024-02-28T07:33:39;4.78;90.60
35085;SHT85;21267;51.032;6.998;2024-02-28T07:36:06;4.76;90.99
35085;SHT85;21267;51.032;6.998;2024-02-28T07:38:33;4.92;90.79
35085;SHT85;21267;51.032;6.998;2024-02-28T07:41:00;4.94;90.60
35085;SHT85;21267;51.032;6.998;2024-02-28T07:43:27;5.01;90.16
35085;SHT85;21267;51.032;6.998;2024-02-28T07:45:55;4.73;90.32
35085;SHT85;21267;51.032;6.998;2024-02-28T07:48:22;4.80;90.65
35085;SHT85;21267;51.032;6.998;2024-02-28T07:50:49;4.87;90.49
35085;SHT85;21267;51.032;6.998;2024-02-28T07:53:16;4.76;90.51
35085;SHT85;21267;51.032;6.998;2024-02-28T07:55:44;4.78;90.60
35085;SHT85;21267;51.032;6.998;2024-02-28T07:58:11;4.87;90.48
35085;SHT85;21267;51.032;6.998;2024-02-28T08:00:38;5.03;90.23
35085;SHT85;21267;51.032;6.998;2024-02-28T08:03:05;5.04;89.92
35085;SHT85;21267;51.032;6.998;2024-02-28T08:05:32;4.94;90.24
35085;SHT85;21267;51.032;6.998;2024-02-28T08:08:07;4.98;89.83
35085;SHT85;21267;51.032;6.998;2024-02-28T08:10:34;5.05;89.97
35085;SHT85;21267;51.032;6.998;2024-02-28T08:13:02;5.04;90.00
35085;SHT85;21267;51.032;6.998;2024-02-28T08:15:29;5.18;89.83
35085;SHT85;21267;51.032;6.998;2024-02-28T08:17:56;5.19;89.43
35085;SHT85;21267;51.032;6.998;2024-02-28T08:20:23;5.08;89.57
35085;SHT85;21267;51.032;6.998;2024-02-28T08:22:50;5.11;89.55
35085;SHT85;21267;51.032;6.998;2024-02-28T08:25:19;5.19;89.34
35085;SHT85;21267;51.032;6.998;2024-02-28T08:27:46;5.22;89.59
35085;SHT85;21267;51.032;6.998;2024-02-28T08:30:13;5.31;89.18
35085;SHT85;21267;51.032;6.998;2024-02-28T08:32:41;5.45;88.99
35085;SHT85;21267;51.032;6.998;2024-02-28T08:35:08;5.60;88.47
35085;SHT85;21267;51.032;6.998;2024-02-28T08:37:35;5.47;88.53
35085;SHT85;21267;51.032;6.998;2024-02-28T08:40:02;5.53;88.09
35085;SHT85;21267;51.032;6.998;2024-02-28T08:42:29;5.63;87.92
35085;SHT85;21267;51.032;6.998;2024-02-28T08:44:56;5.65;88.03
35085;SHT85;21267;51.032;6.998;2024-02-28T08:47:24;5.56;87.79
35085;SHT85;21267;51.032;6.998;2024-02-28T08:49:51;5.53;88.10
35085;SHT85;21267;51.032;6.998;2024-02-28T08:52:18;5.73;87.91
35085;SHT85;21267;51.032;6.998;2024-02-28T08:54:46;5.70;87.99
35085;SHT85;21267;51.032;6.998;2024-02-28T08:57:13;5.56;87.72
35085;SHT85;21267;51.032;6.998;2024-02-28T08:59:40;5.62;88.16
35085;SHT85;21267;51.032;6.998;2024-02-28T09:02:08;5.73;87.70
35085;SHT85;21267;51.032;6.998;2024-02-28T09:04:35;5.77;87.62
35085;SHT85;21267;51.032;6.998;2024-02-28T09:07:02;5.78;87.46
35085;SHT85;21267;51.032;6.998;2024-02-28T09:09:29;5.67;87.76
35085;SHT85;21267;51.032;6.998;2024-02-28T09:11:58;5.84;87.60
35085;SHT85;21267;51.032;6.998;2024-02-28T09:14:26;5.76;87.30
35085;SHT85;21267;51.032;6.998;2024-02-28T09:16:53;5.84;87.08
35085;SHT85;21267;51.032;6.998;2024-02-28T09:19:22;5.83;87.18
35085;SHT85;21267;51.032;6.998;2024-02-28T09:21:49;5.76;87.05
35085;SHT85;21267;51.032;6.998;2024-02-28T09:24:16;5.84;86.69
35085;SHT85;21267;51.032;6.998;2024-02-28T09:26:43;5.80;86.82
35085;SHT85;21267;51.032;6.998;2024-02-28T09:29:10;5.90;86.82
35085;SHT85;21267;51.032;6.998;2024-02-28T09:31:37;5.78;86.86
35085;SHT85;21267;51.032;6.998;2024-02-28T09:34:04;5.77;87.04
35085;SHT85;21267;51.032;6.998;2024-02-28T09:36:43;5.76;87.08
35085;SHT85;21267;51.032;6.998;2024-02-28T09:39:16;6.13;86.81
35085;SHT85;21267;51.032;6.998;2024-02-28T09:41:44;5.94;86.02
35085;SHT85;21267;51.032;6.998;2024-02-28T09:44:14;6.05;86.33
35085;SHT85;21267;51.032;6.998;2024-02-28T09:46:43;6.18;85.89
35085;SHT85;21267;51.032;6.998;2024-02-28T09:49:10;6.25;85.67
35085;SHT85;21267;51.032;6.998;2024-02-28T09:51:37;6.15;85.21
35085;SHT85;21267;51.032;6.998;2024-02-28T09:54:05;6.25;85.06
35085;SHT85;21267;51.032;6.998;2024-02-28T09:56:32;6.39;85.02
35085;SHT85;21267;51.032;6.998;2024-02-28T09:59:00;6.52;84.47
35085;SHT85;21267;51.032;6.998;2024-02-28T10:01:30;6.63;84.02
35085;SHT85;21267;51.032;6.998;2024-02-28T10:03:59;6.77;83.63
35085;SHT85;21267;51.032;6.998;2024-02-28T10:06:27;7.11;83.22
35085;SHT85;21267;51.032;6.998;2024-02-28T10:08:54;7.04;82.49
35085;SHT85;21267;51.032;6.998;2024-02-28T10:11:21;6.87;82.22
35085;SHT85;21267;51.032;6.998;2024-02-28T10:13:49;7.14;81.85
35085;SHT85;21267;51.032;6.998;2024-02-28T10:16:16;7.30;81.91
35085;SHT85;21267;51.032;6.998;2024-02-28T10:18:43;7.65;81.37
35085;SHT85;21267;51.032;6.998;2024-02-28T10:21:11;8.29;78.94
35085;SHT85;21267;51.032;6.998;2024-02-28T10:23:41;8.83;77.42
35085;SHT85;21267;51.032;6.998;2024-02-28T10:26:09;8.55;77.49
35085;SHT85;21267;51.032;6.998;2024-02-28T10:28:37;8.37;77.55
35085;SHT85;21267;51.032;6.998;2024-02-28T10:31:07;8.68;77.65
35085;SHT85;21267;51.032;6.998;2024-02-28T10:33:35;9.39;75.67
35085;SHT85;21267;51.032;6.998;2024-02-28T10:36:04;8.96;75.42
35085;SHT85;21267;51.032;6.998;2024-02-28T10:38:32;8.53;76.42
35085;SHT85;21267;51.032;6.998;2024-02-28T10:41:05;8.54;77.14
35085;SHT85;21267;51.032;6.998;2024-02-28T10:43:37;9.03;76.95
35085;SHT85;21267;51.032;6.998;2024-02-28T10:46:06;9.40;75.11
35085;SHT85;21267;51.032;6.998;2024-02-28T10:48:54;10.45;73.18
35085;SHT85;21267;51.032;6.998;2024-02-28T10:51:23;9.71;73.65
35085;SHT85;21267;51.032;6.998;2024-02-28T10:54:10;9.78;73.38
35085;SHT85;21267;51.032;6.998;2024-02-28T10:56:40;9.97;72.80
35085;SHT85;21267;51.032;6.998;2024-02-28T10:59:10;10.73;71.93
35085;SHT85;21267;51.032;6.998;2024-02-28T11:01:47;10.69;70.61
35085;SHT85;21267;51.032;6.998;2024-02-28T11:04:17;9.99;71.76
35085;SHT85;21267;51.032;6.998;2024-02-28T11:06:48;10.21;72.50
35085;SHT85;21267;51.032;6.998;2024-02-28T11:09:25;10.03;71.35
35085;SHT85;21267;51.032;6.998;2024-02-28T11:11:55;10.45;71.44
35085;SHT85;21267;51.032;6.998;2024-02-28T11:14:23;10.88;69.72
35085;SHT85;21267;51.032;6.998;2024-02-28T11:17:04;10.61;71.44
35085;SHT85;21267;51.032;6.998;2024-02-28T11:19:31;10.34;70.15
35085;SHT85;21267;51.032;6.998;2024-02-28T11:22:01;11.49;68.52
35085;SHT85;21267;51.032;6.998;2024-02-28T11:24:29;11.14;69.05
35085;SHT85;21267;51.032;6.998;2024-02-28T11:26:57;11.22;70.14
35085;SHT85;21267;51.032;6.998;2024-02-28T11:29:25;11.58;68.98
35085;SHT85;21267;51.032;6.998;2024-02-28T11:31:53;12.08;67.11
35085;SHT85;21267;51.032;6.998;2024-02-28T11:34:20;10.25;71.40
35085;SHT85;21267;51.032;6.998;2024-02-28T11:36:48;11.38;70.22
35085;SHT85;21267;51.032;6.998;2024-02-28T11:39:17;12.66;65.40
35085;SHT85;21267;51.032;6.998;2024-02-28T11:41:44;12.55;64.80
35085;SHT85;21267;51.032;6.998;2024-02-28T11:44:16;12.64;64.81
35085;SHT85;21267;51.032;6.998;2024-02-28T11:46:46;12.54;65.31
35085;SHT85;21267;51.032;6.998;2024-02-28T11:49:14;12.83;64.70
35085;SHT85;21267;51.032;6.998;2024-02-28T11:51:44;13.77;63.63
35085;SHT85;21267;51.032;6.998;2024-02-28T11:54:11;12.85;63.16
35085;SHT85;21267;51.032;6.998;2024-02-28T11:56:39;13.77;61.31
35085;SHT85;21267;51.032;6.998;2024-02-28T11:59:08;14.53;61.21
35085;SHT85;21267;51.032;6.998;2024-02-28T12:01:39;13.91;61.96
35085;SHT85;21267;51.032;6.998;2024-02-28T12:04:07;14.17;60.58
35085;SHT85;21267;51.032;6.998;2024-02-28T12:06:35;14.44;59.03
35085;SHT85;21267;51.032;6.998;2024-02-28T12:09:05;14.60;59.88
35085;SHT85;21267;51.032;6.998;2024-02-28T12:11:36;13.96;59.13
35085;SHT85;21267;51.032;6.998;2024-02-28T12:14:04;14.57;58.67
35085;SHT85;21267;51.032;6.998;2024-02-28T12:16:41;13.91;59.06
35085;SHT85;21267;51.032;6.998;2024-02-28T12:19:12;13.74;61.04
35085;SHT85;21267;51.032;6.998;2024-02-28T12:21:40;13.69;60.83
35085;SHT85;21267;51.032;6.998;2024-02-28T12:24:07;13.23;62.05
35085;SHT85;21267;51.032;6.998;2024-02-28T12:26:37;13.44;61.28
35085;SHT85;21267;51.032;6.998;2024-02-28T12:29:03;13.55;61.17
35085;SHT85;21267;51.032;6.998;2024-02-28T12:31:30;13.64;61.73
35085;SHT85;21267;51.032;6.998;2024-02-28T12:33:57;14.50;60.00
35085;SHT85;21267;51.032;6.998;2024-02-28T12:36:25;14.32;60.06
35085;SHT85;21267;51.032;6.998;2024-02-28T12:38:51;14.23;59.21
35085;SHT85;21267;51.032;6.998;2024-02-28T12:41:18;13.64;60.45
35085;SHT85;21267;51.032;6.998;2024-02-28T12:43:45;13.65;60.25
35085;SHT85;21267;51.032;6.998;2024-02-28T12:46:12;14.66;59.50
35085;SHT85;21267;51.032;6.998;2024-02-28T12:48:40;14.66;59.12
35085;SHT85;21267;51.032;6.998;2024-02-28T12:51:11;14.47;59.53
35085;SHT85;21267;51.032;6.998;2024-02-28T12:53:37;14.91;56.58
35085;SHT85;21267;51.032;6.998;2024-02-28T12:56:04;14.22;56.88
35085;SHT85;21267;51.032;6.998;2024-02-28T12:58:31;15.15;56.62
35085;SHT85;21267;51.032;6.998;2024-02-28T13:00:58;14.29;57.15
35085;SHT85;21267;51.032;6.998;2024-02-28T13:03:26;14.49;58.18
35085;SHT85;21267;51.032;6.998;2024-02-28T13:05:52;14.08;59.03
35085;SHT85;21267;51.032;6.998;2024-02-28T13:08:19;14.20;57.91
35085;SHT85;21267;51.032;6.998;2024-02-28T13:10:47;14.02;57.91
35085;SHT85;21267;51.032;6.998;2024-02-28T13:13:13;12.92;58.82
35085;SHT85;21267;51.032;6.998;2024-02-28T13:15:40;13.22;58.72
35085;SHT85;21267;51.032;6.998;2024-02-28T13:18:08;13.71;57.46
35085;SHT85;21267;51.032;6.998;2024-02-28T13:20:37;13.04;60.38
35085;SHT85;21267;51.032;6.998;2024-02-28T13:23:04;13.62;60.16
35085;SHT85;21267;51.032;6.998;2024-02-28T13:25:31;13.26;60.75
35085;SHT85;21267;51.032;6.998;2024-02-28T13:27:58;14.04;56.73
35085;SHT85;21267;51.032;6.998;2024-02-28T13:30:25;13.99;57.17
35085;SHT85;21267;51.032;6.998;2024-02-28T13:32:52;13.82;55.21
35085;SHT85;21267;51.032;6.998;2024-02-28T13:35:22;14.53;55.63
35085;SHT85;21267;51.032;6.998;2024-02-28T13:37:48;13.79;55.54
35085;SHT85;21267;51.032;6.998;2024-02-28T13:40:15;13.53;54.94
35085;SHT85;21267;51.032;6.998;2024-02-28T13:42:42;13.62;55.38
35085;SHT85;21267;51.032;6.998;2024-02-28T13:45:09;14.26;55.28
35085;SHT85;21267;51.032;6.998;2024-02-28T13:47:37;13.96;57.17
35085;SHT85;21267;51.032;6.998;2024-02-28T13:50:04;13.37;58.38
35085;SHT85;21267;51.032;6.998;2024-02-28T13:52:31;12.61;59.22
35085;SHT85;21267;51.032;6.998;2024-02-28T13:54:58;12.79;58.78
35085;SHT85;21267;51.032;6.998;2024-02-28T13:57:25;12.59;59.24
35085;SHT85;21267;51.032;6.998;2024-02-28T13:59:52;12.47;59.64
35085;SHT85;21267;51.032;6.998;2024-02-28T14:02:21;12.22;60.06
35085;SHT85;21267;51.032;6.998;2024-02-28T14:04:49;12.39;59.79
35085;SHT85;21267;51.032;6.998;2024-02-28T14:07:18;12.92;58.70
35085;SHT85;21267;51.032;6.998;2024-02-28T14:09:45;12.75;58.98
35085;SHT85;21267;51.032;6.998;2024-02-28T14:12:13;12.85;56.81
35085;SHT85;21267;51.032;6.998;2024-02-28T14:14:40;12.90;57.33
35085;SHT85;21267;51.032;6.998;2024-02-28T14:17:07;13.24;53.79
35085;SHT85;21267;51.032;6.998;2024-02-28T14:19:34;13.33;53.10
35085;SHT85;21267;51.032;6.998;2024-02-28T14:22:03;12.73;52.57
35085;SHT85;21267;51.032;6.998;2024-02-28T14:24:31;12.45;54.04
35085;SHT85;21267;51.032;6.998;2024-02-28T14:26:58;11.99;55.53
35085;SHT85;21267;51.032;6.998;2024-02-28T14:29:24;12.22;55.94
35085;SHT85;21267;51.032;6.998;2024-02-28T14:31:52;12.41;55.04
35085;SHT85;21267;51.032;6.998;2024-02-28T14:34:19;12.57;52.88
35085;SHT85;21267;51.032;6.998;2024-02-28T14:36:48;12.49;53.17
35085;SHT85;21267;51.032;6.998;2024-02-28T14:39:15;12.68;52.21
35085;SHT85;21267;51.032;6.998;2024-02-28T14:41:43;12.65;53.29
35085;SHT85;21267;51.032;6.998;2024-02-28T14:44:13;12.18;55.32
35085;SHT85;21267;51.032;6.998;2024-02-28T14:46:42;12.22;55.50
35085;SHT85;21267;51.032;6.998;2024-02-28T14:49:10;12.08;56.88
35085;SHT85;21267;51.032;6.998;2024-02-28T14:51:36;12.39;57.38
35085;SHT85;21267;51.032;6.998;2024-02-28T14:54:06;12.58;57.11
35085;SHT85;21267;51.032;6.998;2024-02-28T14:56:35;12.48;56.70
35085;SHT85;21267;51.032;6.998;2024-02-28T14:59:01;12.10;56.60
35085;SHT85;21267;51.032;6.998;2024-02-28T15:01:30;12.11;56.68
35085;SHT85;21267;51.032;6.998;2024-02-28T15:03:57;11.80;56.77
35085;SHT85;21267;51.032;6.998;2024-02-28T15:06:24;11.58;56.27
35085;SHT85;21267;51.032;6.998;2024-02-28T15:08:51;11.73;56.65
35085;SHT85;21267;51.032;6.998;2024-02-28T15:11:18;11.75;57.15
35085;SHT85;21267;51.032;6.998;2024-02-28T15:13:45;11.73;56.08
35085;SHT85;21267;51.032;6.998;2024-02-28T15:16:13;12.24;56.32
35085;SHT85;21267;51.032;6.998;2024-02-28T15:18:40;12.21;55.53
35085;SHT85;21267;51.032;6.998;2024-02-28T15:21:07;12.08;55.82
35085;SHT85;21267;51.032;6.998;2024-02-28T15:23:34;11.96;57.32
35085;SHT85;21267;51.032;6.998;2024-02-28T15:26:02;11.83;57.61
35085;SHT85;21267;51.032;6.998;2024-02-28T15:28:29;11.80;58.02
35085;SHT85;21267;51.032;6.998;2024-02-28T15:30:57;11.45;58.54
35085;SHT85;21267;51.032;6.998;2024-02-28T15:33:25;11.35;59.38
35085;SHT85;21267;51.032;6.998;2024-02-28T15:35:54;11.45;59.17
35085;SHT85;21267;51.032;6.998;2024-02-28T15:38:21;11.28;58.96
35085;SHT85;21267;51.032;6.998;2024-02-28T15:40:48;11.39;58.67
35085;SHT85;21267;51.032;6.998;2024-02-28T15:43:15;11.49;59.17
35085;SHT85;21267;51.032;6.998;2024-02-28T15:45:41;11.56;59.05
35085;SHT85;21267;51.032;6.998;2024-02-28T15:48:10;11.38;59.13
35085;SHT85;21267;51.032;6.998;2024-02-28T15:50:37;11.15;59.99
35085;SHT85;21267;51.032;6.998;2024-02-28T15:53:04;11.15;60.41
35085;SHT85;21267;51.032;6.998;2024-02-28T15:55:31;11.08;60.82